Time;durP1;ratioP1;P1;durP2;ratioP2;P2;SDS_P1;SDS_P2;PMS_P1;PMS_P2;Temp;Humidity;BMP_temperature;BMP_pressure;BME280_temperature;BME280_humidity;BME280_pressure;Samples;Min_cycle;Max_cycle;Signal;HPM_P1;HPM_P2
2022/07/01 00:01:56;;;;;;;;;0.00;0.00;;;;;-146.44;100.00;58906.56;5077018;27;45550;-69
2022/07/01 00:04:25;;;;;;;;;1.67;0.00;;;;;-146.44;100.00;58906.56;5090524;27;45580;-69
2022/07/01 00:06:51;;;;;;;;;0.00;0.00;;;;;-146.44;100.00;58906.56;5075312;27;45470;-68
2022/07/01 00:09:16;;;;;;;;;1.00;1.00;;;;;-146.44;100.00;58906.56;5057058;28;45552;-69
2022/07/01 00:11:42;;;;;;;;;2.00;1.00;;;;;-146.44;100.00;58906.56;5074854;28;45602;-69
2022/07/01 00:14:07;;;;;;;;;0.67;0.67;;;;;-146.44;100.00;58906.56;5080134;27;45497;-69
2022/07/01 00:16:32;;;;;;;;;1.00;1.00;;;;;-146.44;100.00;58906.56;5093645;27;49490;-69
2022/07/01 00:18:58;;;;;;;;;1.00;1.00;;;;;-146.44;100.00;58906.56;5095045;27;45520;-69
2022/07/01 00:21:23;;;;;;;;;0.00;0.00;;;;;-146.44;100.00;58906.56;5080248;27;45420;-69
2022/07/01 00:23:48;;;;;;;;;0.67;0.67;;;;;-146.44;100.00;58906.56;5063379;27;45452;-69
2022/07/01 00:26:14;;;;;;;;;1.00;1.00;;;;;-146.44;100.00;58906.56;5094118;27;46501;-69
2022/07/01 00:28:39;;;;;;;;;1.00;1.00;;;;;-146.44;100.00;58906.56;5095180;27;45480;-69
2022/07/01 00:31:04;;;;;;;;;0.00;0.00;;;;;-146.44;100.00;58906.56;5095077;27;45537;-69
2022/07/01 00:33:30;;;;;;;;;0.00;0.00;;;;;-146.44;100.00;58906.56;5077134;27;45552;-69
2022/07/01 00:35:56;;;;;;;;;0.00;0.00;;;;;-146.44;100.00;58906.56;5074634;28;45497;-69
2022/07/01 00:38:21;;;;;;;;;0.00;0.00;;;;;-146.44;100.00;58906.56;5074376;28;45548;-69
2022/07/01 00:40:52;;;;;;;;;1.00;1.00;;;;;-146.44;100.00;58906.56;5081151;27;45466;-68
2022/07/01 00:43:18;;;;;;;;;0.33;0.33;;;;;-146.44;100.00;58906.56;5093752;27;45412;-69
2022/07/01 00:45:47;;;;;;;;;0.00;0.00;;;;;-146.44;100.00;58906.56;5094580;27;46279;-69
2022/07/01 00:48:13;;;;;;;;;0.00;0.00;;;;;-146.44;100.00;58906.56;5094175;27;45516;-69
2022/07/01 00:50:39;;;;;;;;;0.00;0.00;;;;;-146.44;100.00;58906.56;5094429;27;45488;-69
2022/07/01 00:53:05;;;;;;;;;1.00;1.00;;;;;-146.44;100.00;58906.56;5075837;27;45466;-69
2022/07/01 00:55:30;;;;;;;;;1.00;1.00;;;;;-146.44;100.00;58906.56;5094168;27;45417;-69
2022/07/01 00:57:56;;;;;;;;;1.00;1.00;;;;;-146.44;100.00;58906.56;5093637;27;45538;-69
2022/07/01 01:00:22;;;;;;;;;0.00;0.00;;;;;-146.44;100.00;58906.56;5074451;27;45472;-69
2022/07/01 01:02:47;;;;;;;;;1.00;1.00;;;;;-146.44;100.00;58906.56;5094190;27;45624;-69
2022/07/01 01:05:13;;;;;;;;;1.33;1.33;;;;;-146.44;100.00;58906.56;5094071;27;45927;-69
2022/07/01 01:07:38;;;;;;;;;1.00;1.00;;;;;-146.44;100.00;58906.56;5093945;27;45426;-69
2022/07/01 01:10:04;;;;;;;;;2.00;1.00;;;;;-146.44;100.00;58906.56;5093973;27;45653;-69
2022/07/01 01:12:30;;;;;;;;;1.00;1.00;;;;;-146.44;100.00;58906.56;5094196;27;45476;-69
2022/07/01 01:14:57;;;;;;;;;1.00;1.00;;;;;-146.44;100.00;58906.56;5085939;27;46001;-69
2022/07/01 01:17:23;;;;;;;;;1.00;1.00;;;;;-146.44;100.00;58906.56;5074671;27;45446;-69
2022/07/01 01:19:49;;;;;;;;;1.00;1.00;;;;;-146.44;100.00;58906.56;5094029;27;45394;-69
2022/07/01 01:22:16;;;;;;;;;0.33;0.33;;;;;-146.44;100.00;58906.56;5094450;27;45519;-69
2022/07/01 01:24:43;;;;;;;;;0.67;0.67;;;;;-146.44;100.00;58906.56;5094190;27;46605;-69
2022/07/01 01:27:08;;;;;;;;;1.00;1.00;;;;;-146.44;100.00;58906.56;5094087;27;45582;-69
2022/07/01 01:29:35;;;;;;;;;1.00;1.00;;;;;-146.44;100.00;58906.56;5075778;27;45476;-69
2022/07/01 01:32:02;;;;;;;;;0.00;0.00;;;;;-146.44;100.00;58906.56;5085317;27;45463;-69
2022/07/01 01:34:27;;;;;;;;;1.00;1.00;;;;;-146.44;100.00;58906.56;5073789;27;45581;-69
2022/07/01 01:36:53;;;;;;;;;1.00;1.00;;;;;-146.44;100.00;58906.56;5076665;28;45504;-69
2022/07/01 01:39:19;;;;;;;;;1.00;0.33;;;;;-146.44;100.00;58906.56;5076880;28;45578;-69
2022/07/01 01:41:44;;;;;;;;;0.00;0.00;;;;;-146.44;100.00;58906.56;5076625;28;45655;-69
2022/07/01 01:44:10;;;;;;;;;1.00;1.00;;;;;-146.44;100.00;58906.56;5058481;28;47425;-69
2022/07/01 01:46:36;;;;;;;;;1.33;1.33;;;;;-146.44;100.00;58906.56;5077032;28;45462;-68
2022/07/01 01:49:02;;;;;;;;;0.00;0.00;;;;;-146.44;100.00;58906.56;5077185;27;45438;-69
2022/07/01 01:51:28;;;;;;;;;0.00;0.00;;;;;-146.44;100.00;58906.56;5077736;27;45671;-69
2022/07/01 01:53:54;;;;;;;;;1.00;1.00;;;;;-146.44;100.00;58906.56;5077181;27;46176;-69
2022/07/01 01:56:20;;;;;;;;;0.00;0.00;;;;;-146.44;100.00;58906.56;5097138;27;45515;-69
2022/07/01 01:58:45;;;;;;;;;2.00;1.00;;;;;-146.44;100.00;58906.56;5097571;27;45406;-69
2022/07/01 02:01:12;;;;;;;;;1.00;1.00;;;;;-146.44;100.00;58906.56;5079340;27;45619;-69
2022/07/01 02:03:39;;;;;;;;;2.00;1.00;;;;;-146.44;100.00;58906.56;5076535;28;46765;-69
2022/07/01 02:06:05;;;;;;;;;1.00;1.00;;;;;-146.44;100.00;58906.56;5085840;27;45518;-69
2022/07/01 02:08:31;;;;;;;;;1.00;1.00;;;;;-146.44;100.00;58906.56;5096292;27;45442;-69
2022/07/01 02:10:57;;;;;;;;;1.00;1.00;;;;;-146.44;100.00;58906.56;5078736;27;45484;-69
2022/07/01 02:13:23;;;;;;;;;2.00;1.33;;;;;-146.44;100.00;58906.56;5096975;27;45492;-69
2022/07/01 02:15:49;;;;;;;;;1.67;1.33;;;;;-146.44;100.00;58906.56;5097253;27;45422;-69
2022/07/01 02:18:15;;;;;;;;;1.00;1.00;;;;;-146.44;100.00;58906.56;5097003;27;46132;-68
2022/07/01 02:20:41;;;;;;;;;0.00;0.00;;;;;-146.44;100.00;58906.56;5097011;27;45583;-69
2022/07/01 02:23:07;;;;;;;;;1.00;1.00;;;;;-146.44;100.00;58906.56;5087026;27;46398;-69
2022/07/01 02:25:33;;;;;;;;;2.00;2.00;;;;;-146.44;100.00;58906.56;5077415;27;45408;-68
2022/07/01 02:27:58;;;;;;;;;1.00;1.00;;;;;-146.44;100.00;58906.56;5076616;28;45537;-68
2022/07/01 02:30:24;;;;;;;;;0.67;0.67;;;;;-146.44;100.00;58906.56;5076381;28;45498;-68
2022/07/01 02:32:49;;;;;;;;;0.33;0.33;;;;;-146.44;100.00;58906.56;5076139;28;46284;-68
2022/07/01 02:35:15;;;;;;;;;1.00;1.00;;;;;-146.44;100.00;58906.56;5076366;28;45395;-69
2022/07/01 02:37:40;;;;;;;;;0.33;0.33;;;;;-146.44;100.00;58906.56;5076942;28;45482;-69
2022/07/01 02:40:06;;;;;;;;;1.00;1.00;;;;;-146.44;100.00;58906.56;5085842;27;45383;-70
2022/07/01 02:42:35;;;;;;;;;0.00;0.00;;;;;-146.44;100.00;58906.56;5095845;27;46400;-69
2022/07/01 02:45:01;;;;;;;;;2.00;0.67;;;;;-146.44;100.00;58906.56;5097131;27;45481;-69
2022/07/01 02:47:31;;;;;;;;;1.00;1.00;;;;;-146.44;100.00;58906.56;5095849;27;45509;-69
2022/07/01 02:49:57;;;;;;;;;1.00;1.00;;;;;-146.44;100.00;58906.56;5078783;27;45451;-70
2022/07/01 02:52:22;;;;;;;;;0.00;0.00;;;;;-146.44;100.00;58906.56;5096668;27;45508;-69
2022/07/01 02:54:47;;;;;;;;;1.00;1.00;;;;;-146.44;100.00;58906.56;5096322;27;45505;-69
2022/07/01 02:57:13;;;;;;;;;0.00;0.00;;;;;-146.44;100.00;58906.56;5086213;27;45525;-69
2022/07/01 02:59:38;;;;;;;;;0.00;0.00;;;;;-146.44;100.00;58906.56;5080651;27;45424;-69
2022/07/01 03:02:04;;;;;;;;;0.33;0.33;;;;;-146.44;100.00;58906.56;5096360;27;45964;-69
2022/07/01 03:04:29;;;;;;;;;0.67;0.67;;;;;-146.44;100.00;58906.56;5096456;27;45572;-69
2022/07/01 03:06:55;;;;;;;;;0.00;0.00;;;;;-146.44;100.00;58906.56;5096331;27;45623;-68
2022/07/01 03:09:20;;;;;;;;;0.00;0.00;;;;;-146.44;100.00;58906.56;5096119;27;45500;-68
2022/07/01 03:11:45;;;;;;;;;0.33;0.00;;;;;-146.44;100.00;58906.56;5096083;27;46304;-69
2022/07/01 03:14:11;;;;;;;;;0.00;0.00;;;;;-146.44;100.00;58906.56;5085866;27;45457;-69
2022/07/01 03:16:36;;;;;;;;;1.00;1.00;;;;;-146.44;100.00;58906.56;5069600;27;45445;-68
2022/07/01 03:19:02;;;;;;;;;2.00;0.33;;;;;-146.44;100.00;58906.56;5096197;27;45505;-69
2022/07/01 03:21:27;;;;;;;;;0.00;0.00;;;;;-146.44;100.00;58906.56;5095982;27;46532;-69
2022/07/01 03:23:52;;;;;;;;;1.00;1.00;;;;;-146.44;100.00;58906.56;5096005;27;45448;-69
2022/07/01 03:26:18;;;;;;;;;2.00;2.00;;;;;-146.44;100.00;58906.56;5095660;27;45467;-69
2022/07/01 03:28:43;;;;;;;;;1.00;1.00;;;;;-146.44;100.00;58906.56;5094662;27;45537;-69
2022/07/01 03:31:08;;;;;;;;;2.00;2.00;;;;;-146.44;100.00;58906.56;5085858;27;45477;-69
2022/07/01 03:33:34;;;;;;;;;2.00;2.00;;;;;-146.44;100.00;58906.56;5075551;27;45592;-69
2022/07/01 03:35:59;;;;;;;;;0.00;0.00;;;;;-146.44;100.00;58906.56;5075471;28;45480;-69
2022/07/01 03:38:25;;;;;;;;;0.67;0.67;;;;;-146.44;100.00;58906.56;5075132;28;45943;-69
2022/07/01 03:40:50;;;;;;;;;1.33;1.33;;;;;-146.44;100.00;58906.56;5074841;28;46313;-69
2022/07/01 03:43:15;;;;;;;;;1.00;1.00;;;;;-146.44;100.00;58906.56;5089779;27;45449;-69
2022/07/01 03:45:41;;;;;;;;;1.67;1.67;;;;;-146.44;100.00;58906.56;5074858;28;45480;-69
2022/07/01 03:48:06;;;;;;;;;2.00;2.00;;;;;-146.44;100.00;58906.56;5084287;27;45505;-68
2022/07/01 03:50:32;;;;;;;;;1.00;1.00;;;;;-146.44;100.00;58906.56;5094386;27;46056;-69
2022/07/01 03:55:41;;;;;;;;;2.67;2.67;;;;;-146.44;100.00;58906.56;5095570;27;45473;-69
2022/07/01 03:58:07;;;;;;;;;3.00;2.00;;;;;-146.44;100.00;58906.56;5094999;27;45411;-69
2022/07/01 04:00:35;;;;;;;;;3.67;3.00;;;;;-146.44;100.00;58906.56;5094650;27;46161;-69
2022/07/01 04:03:01;;;;;;;;;3.33;2.67;;;;;-146.44;100.00;58906.56;5078705;27;45499;-69
2022/07/01 04:05:27;;;;;;;;;4.00;4.00;;;;;-146.44;100.00;58906.56;5086578;27;45514;-69
2022/07/01 04:07:52;;;;;;;;;5.00;4.00;;;;;-146.44;100.00;58906.56;5093459;27;45833;-69
2022/07/01 04:10:18;;;;;;;;;3.00;3.00;;;;;-146.44;100.00;58906.56;5095036;27;45412;-69
2022/07/01 04:12:43;;;;;;;;;3.00;3.00;;;;;-146.44;100.00;58906.56;5095371;27;45445;-69
2022/07/01 04:15:09;;;;;;;;;5.33;4.00;;;;;-146.44;100.00;58906.56;5095284;27;45480;-68
2022/07/01 04:17:35;;;;;;;;;4.00;4.00;;;;;-146.44;100.00;58906.56;5095414;27;45557;-69
2022/07/01 04:20:01;;;;;;;;;4.00;4.00;;;;;-146.44;100.00;58906.56;5094822;27;45535;-68
2022/07/01 04:22:32;;;;;;;;;5.00;5.00;;;;;-146.44;100.00;58906.56;5082772;27;45456;-69
2022/07/01 04:24:58;;;;;;;;;4.00;4.00;;;;;-146.44;100.00;58906.56;5074905;27;45560;-69
2022/07/01 04:27:24;;;;;;;;;4.33;4.33;;;;;-146.44;100.00;58906.56;5074367;28;45514;-69
2022/07/01 04:29:49;;;;;;;;;4.33;4.33;;;;;-146.44;100.00;58906.56;5056227;28;47905;-69
2022/07/01 04:32:14;;;;;;;;;4.00;4.00;;;;;-146.44;100.00;58906.56;5074515;28;45626;-68
2022/07/01 04:34:39;;;;;;;;;2.33;2.33;;;;;-146.44;100.00;58906.56;5074587;28;45459;-68
2022/07/01 04:37:05;;;;;;;;;4.33;4.00;;;;;-146.44;100.00;58906.56;5074564;28;45467;-68
2022/07/01 04:39:30;;;;;;;;;3.00;3.00;;;;;-146.44;100.00;58906.56;5086762;27;48630;-68
2022/07/01 04:42:01;;;;;;;;;3.67;3.67;;;;;-146.44;100.00;58906.56;5093590;27;45503;-68
2022/07/01 04:44:37;;;;;;;;;4.67;3.00;;;;;-146.44;100.00;58906.56;5094999;27;45542;-68
2022/07/01 04:47:04;;;;;;;;;2.33;2.33;;;;;-146.44;100.00;58906.56;5094715;27;45455;-68
2022/07/01 04:49:30;;;;;;;;;4.00;2.00;;;;;-146.44;100.00;58906.56;5094772;27;46683;-68
2022/07/01 04:51:57;;;;;;;;;3.33;3.33;;;;;-146.44;100.00;58906.56;5094633;27;45519;-68
2022/07/01 04:54:23;;;;;;;;;4.00;2.67;;;;;-146.44;100.00;58906.56;5094671;27;45418;-68
2022/07/01 04:56:50;;;;;;;;;2.33;2.33;;;;;-146.44;100.00;58906.56;5079242;27;45362;-68
2022/07/01 04:59:16;;;;;;;;;3.33;3.33;;;;;-146.44;100.00;58906.56;5074674;27;45586;-67
2022/07/01 05:01:42;;;;;;;;;5.00;5.00;;;;;-146.44;100.00;58906.56;5073978;28;45501;-68
2022/07/01 05:04:08;;;;;;;;;4.33;2.67;;;;;-146.44;100.00;58906.56;5085874;27;45535;-68
2022/07/01 05:06:34;;;;;;;;;3.00;3.00;;;;;-146.44;100.00;58906.56;5094623;27;45418;-68
2022/07/01 05:09:00;;;;;;;;;3.67;3.67;;;;;-146.44;100.00;58906.56;5094125;27;45653;-68
2022/07/01 05:11:25;;;;;;;;;2.67;2.67;;;;;-146.44;100.00;58906.56;5096814;27;45646;-68
2022/07/01 05:13:50;;;;;;;;;1.33;1.33;;;;;-146.44;100.00;58906.56;5082407;27;45468;-68
2022/07/01 05:16:17;;;;;;;;;2.00;2.00;;;;;-146.44;100.00;58906.56;5077939;27;45458;-68
2022/07/01 05:24:10;;;;;;;;;1.67;1.67;;;;;-146.44;100.00;58906.56;5077334;28;45434;-68
2022/07/01 05:26:35;;;;;;;;;3.00;3.00;;;;;-146.44;100.00;58906.56;5077063;28;45704;-68
2022/07/01 05:29:01;;;;;;;;;4.33;3.00;;;;;-146.44;100.00;58906.56;5077103;27;45509;-69
2022/07/01 05:31:26;;;;;;;;;4.33;3.00;;;;;-146.44;100.00;58906.56;5096628;27;45470;-69
2022/07/01 05:33:51;;;;;;;;;3.00;2.00;;;;;-146.44;100.00;58906.56;5097771;27;45496;-69
2022/07/01 05:36:17;;;;;;;;;2.00;2.00;;;;;-146.44;100.00;58906.56;5097742;27;45440;-69
2022/07/01 05:38:42;;;;;;;;;3.00;3.00;;;;;-146.44;100.00;58906.56;5097476;27;45441;-69
2022/07/01 05:41:08;;;;;;;;;3.00;3.00;;;;;-146.44;100.00;58906.56;5097351;27;45458;-69
2022/07/01 05:43:34;;;;;;;;;1.67;1.67;;;;;-146.44;100.00;58906.56;5097230;27;45566;-69
2022/07/01 05:46:00;;;;;;;;;2.00;2.00;;;;;-146.44;100.00;58906.56;5097085;27;45631;-69
2022/07/01 05:48:25;;;;;;;;;2.67;2.67;;;;;-146.44;100.00;58906.56;5078628;27;45537;-69
2022/07/01 05:50:51;;;;;;;;;3.00;3.00;;;;;-146.44;100.00;58906.56;5097125;27;45492;-69
2022/07/01 05:53:17;;;;;;;;;3.00;2.00;;;;;-146.44;100.00;58906.56;5097700;27;46003;-69
2022/07/01 05:55:42;;;;;;;;;2.00;2.00;;;;;-146.44;100.00;58906.56;5097273;27;45399;-69
2022/07/01 05:58:10;;;;;;;;;3.00;2.00;;;;;-146.44;100.00;58906.56;5097043;27;45457;-68
2022/07/01 06:00:35;;;;;;;;;3.00;3.00;;;;;-146.44;100.00;58906.56;5097065;27;45434;-68
2022/07/01 06:03:01;;;;;;;;;4.00;4.00;;;;;-146.44;100.00;58906.56;5096772;27;45356;-68
2022/07/01 06:05:26;;;;;;;;;2.00;2.00;;;;;-146.44;100.00;58906.56;5079031;27;45514;-69
2022/07/01 06:07:52;;;;;;;;;3.00;1.67;;;;;-146.44;100.00;58906.56;5096949;27;45492;-68
2022/07/01 06:10:17;;;;;;;;;2.00;2.00;;;;;-146.44;100.00;58906.56;5097273;27;45474;-68
2022/07/01 06:12:43;;;;;;;;;2.00;2.00;;;;;-146.44;100.00;58906.56;5096851;27;45422;-68
2022/07/01 06:15:11;;;;;;;;;1.00;1.00;;;;;-146.44;100.00;58906.56;5096132;27;45469;-67
2022/07/01 06:17:37;;;;;;;;;4.00;2.33;;;;;-146.44;100.00;58906.56;5096857;27;45490;-68
2022/07/01 06:20:03;;;;;;;;;4.00;4.00;;;;;-146.44;100.00;58906.56;5096319;27;45489;-68
2022/07/01 06:22:28;;;;;;;;;1.00;1.00;;;;;-146.44;100.00;58906.56;5091943;27;45552;-68
2022/07/01 06:24:54;;;;;;;;;2.00;2.00;;;;;-146.44;100.00;58906.56;5076315;28;45500;-68
2022/07/01 06:27:19;;;;;;;;;2.67;1.00;;;;;-146.44;100.00;58906.56;5075834;28;47377;-68
2022/07/01 06:29:45;;;;;;;;;1.33;1.33;;;;;-146.44;100.00;58906.56;5076301;28;45408;-68
2022/07/01 06:32:11;;;;;;;;;2.00;2.00;;;;;-146.44;100.00;58906.56;5076283;28;45447;-68
2022/07/01 06:34:38;;;;;;;;;2.33;2.33;;;;;-146.44;100.00;58906.56;5076294;28;45688;-69
2022/07/01 06:37:03;;;;;;;;;2.33;2.33;;;;;-146.44;100.00;58906.56;5076583;27;45462;-69
2022/07/01 06:39:29;;;;;;;;;3.67;1.33;;;;;-146.44;100.00;58906.56;5095477;27;45452;-70
2022/07/01 06:41:56;;;;;;;;;2.00;2.00;;;;;-146.44;100.00;58906.56;5096203;27;45449;-69
2022/07/01 06:44:21;;;;;;;;;2.33;2.33;;;;;-146.44;100.00;58906.56;5096520;27;45565;-69
2022/07/01 06:46:47;;;;;;;;;2.00;2.00;;;;;-146.44;100.00;58906.56;5096200;27;46323;-69
2022/07/01 06:49:12;;;;;;;;;3.00;2.00;;;;;-146.44;100.00;58906.56;5096226;27;45501;-69
2022/07/01 06:51:38;;;;;;;;;1.00;1.00;;;;;-146.44;100.00;58906.56;5096536;27;45445;-69
2022/07/01 06:54:03;;;;;;;;;1.00;1.00;;;;;-146.44;100.00;58906.56;5095739;27;45517;-69
2022/07/01 06:56:28;;;;;;;;;1.00;1.00;;;;;-146.44;100.00;58906.56;5076261;27;46168;-68
2022/07/01 06:58:54;;;;;;;;;2.67;1.67;;;;;-146.44;100.00;58906.56;5076027;28;45407;-69
2022/07/01 07:01:20;;;;;;;;;2.00;0.00;;;;;-146.44;100.00;58906.56;5075777;27;45517;-68
2022/07/01 07:03:45;;;;;;;;;1.00;1.00;;;;;-146.44;100.00;58906.56;5075825;28;45464;-63
2022/07/01 07:06:11;;;;;;;;;1.33;1.33;;;;;-146.44;100.00;58906.56;5075667;28;45988;-62
2022/07/01 07:08:36;;;;;;;;;1.00;1.00;;;;;-146.44;100.00;58906.56;5057033;27;45522;-62
2022/07/01 07:11:02;;;;;;;;;0.33;0.33;;;;;-146.44;100.00;58906.56;5075850;27;45541;-62
2022/07/01 07:13:28;;;;;;;;;1.00;1.00;;;;;-146.44;100.00;58906.56;5077461;27;45536;-62
2022/07/01 07:15:53;;;;;;;;;2.67;1.00;;;;;-146.44;100.00;58906.56;5095618;27;45534;-62
2022/07/01 07:18:19;;;;;;;;;1.00;1.00;;;;;-146.44;100.00;58906.56;5077093;27;45443;-62
2022/07/01 07:20:44;;;;;;;;;1.00;1.00;;;;;-146.44;100.00;58906.56;5077300;27;45498;-62
2022/07/01 07:23:10;;;;;;;;;2.33;1.33;;;;;-146.44;100.00;58906.56;5095630;27;45449;-62
2022/07/01 07:25:35;;;;;;;;;1.67;1.00;;;;;-146.44;100.00;58906.56;5095054;27;45529;-62
2022/07/01 07:28:01;;;;;;;;;0.00;0.00;;;;;-146.44;100.00;58906.56;5095359;27;45446;-62
2022/07/01 07:30:26;;;;;;;;;1.00;1.00;;;;;-146.44;100.00;58906.56;5075012;27;45431;-62
2022/07/01 07:32:52;;;;;;;;;1.00;1.00;;;;;-146.44;100.00;58906.56;5074227;28;45541;-62
2022/07/01 07:35:18;;;;;;;;;1.00;1.00;;;;;-146.44;100.00;58906.56;5056710;28;45577;-64
2022/07/01 07:37:45;;;;;;;;;1.00;1.00;;;;;-146.44;100.00;58906.56;5088723;27;45650;-63
2022/07/01 07:40:12;;;;;;;;;1.00;1.00;;;;;-146.44;100.00;58906.56;5094285;27;45493;-64
2022/07/01 07:42:39;;;;;;;;;1.00;1.00;;;;;-146.44;100.00;58906.56;5094915;27;45645;-64
2022/07/01 07:45:08;;;;;;;;;1.00;1.00;;;;;-146.44;100.00;58906.56;5094242;27;45596;-64
2022/07/01 07:47:34;;;;;;;;;1.00;1.00;;;;;-146.44;100.00;58906.56;5074680;28;45370;-64
2022/07/01 07:49:59;;;;;;;;;2.00;0.00;;;;;-146.44;100.00;58906.56;5074858;28;46018;-58
2022/07/01 07:52:25;;;;;;;;;1.00;1.00;;;;;-146.44;100.00;58906.56;5075043;28;45416;-58
2022/07/01 07:54:50;;;;;;;;;2.00;0.67;;;;;-146.44;100.00;58906.56;5079914;27;46414;-59
2022/07/01 07:57:16;;;;;;;;;0.00;0.00;;;;;-146.44;100.00;58906.56;5095447;27;45352;-63
2022/07/01 07:59:41;;;;;;;;;1.33;0.00;;;;;-146.44;100.00;58906.56;5095442;27;45492;-63
2022/07/01 08:02:06;;;;;;;;;0.00;0.00;;;;;-146.44;100.00;58906.56;5094412;27;45742;-61
2022/07/01 08:04:32;;;;;;;;;0.67;0.67;;;;;-146.44;100.00;58906.56;5092886;27;45758;-63
2022/07/01 08:06:58;;;;;;;;;2.00;2.00;;;;;-146.44;100.00;58906.56;5095238;27;45494;-62
2022/07/01 08:09:24;;;;;;;;;0.00;0.00;;;;;-146.44;100.00;58906.56;5094285;27;45552;-62
2022/07/01 08:11:50;;;;;;;;;0.00;0.00;;;;;-146.44;100.00;58906.56;5094365;27;45513;-63
2022/07/01 08:14:15;;;;;;;;;0.67;0.67;;;;;-146.44;100.00;58906.56;5094519;27;45513;-63
2022/07/01 08:16:40;;;;;;;;;1.33;1.33;;;;;-146.44;100.00;58906.56;5094843;27;45521;-63
2022/07/01 08:19:05;;;;;;;;;2.00;2.00;;;;;-146.44;100.00;58906.56;5094868;27;45482;-64
2022/07/01 08:21:31;;;;;;;;;2.00;2.00;;;;;-146.44;100.00;58906.56;5094691;27;45988;-64
2022/07/01 08:23:56;;;;;;;;;3.00;3.00;;;;;-146.44;100.00;58906.56;5075205;27;47651;-64
2022/07/01 08:26:22;;;;;;;;;2.00;1.33;;;;;-146.44;100.00;58906.56;5094916;27;45584;-62
2022/07/01 08:28:47;;;;;;;;;3.00;2.00;;;;;-146.44;100.00;58906.56;5094583;27;45471;-64
2022/07/01 08:31:13;;;;;;;;;3.00;1.00;;;;;-146.44;100.00;58906.56;5092818;27;45448;-64
2022/07/01 08:33:40;;;;;;;;;1.00;0.00;;;;;-146.44;100.00;58906.56;5093596;27;45510;-63
2022/07/01 08:36:07;;;;;;;;;1.00;1.00;;;;;-146.44;100.00;58906.56;5094658;27;45410;-64
2022/07/01 08:38:32;;;;;;;;;1.00;1.00;;;;;-146.44;100.00;58906.56;5092502;27;45531;-64
2022/07/01 08:40:58;;;;;;;;;3.00;3.00;;;;;-146.44;100.00;58906.56;5093318;27;45483;-63
2022/07/01 08:43:23;;;;;;;;;1.67;1.00;;;;;-146.44;100.00;58906.56;5092516;27;45424;-63
2022/07/01 08:45:51;;;;;;;;;4.33;4.33;;;;;-146.44;100.00;58906.56;5097356;27;45457;-63
2022/07/01 08:48:16;;;;;;;;;1.00;0.00;;;;;-146.44;100.00;58906.56;5097889;27;45691;-64
2022/07/01 08:50:41;;;;;;;;;2.00;2.00;;;;;-146.44;100.00;58906.56;5097945;27;45677;-63
2022/07/01 08:53:09;;;;;;;;;0.00;0.00;;;;;-146.44;100.00;58906.56;5097836;27;46438;-64
2022/07/01 08:56:40;;;;;;;;;1.00;1.00;;;;;-146.44;100.00;58906.56;5097900;27;45508;-63
2022/07/01 08:58:21;;;;;;;;;1.00;1.00;;;;;-146.44;100.00;58906.56;5097687;27;45405;-62
2022/07/01 09:00:47;;;;;;;;;0.00;0.00;;;;;-146.44;100.00;58906.56;5097777;27;45384;-65
2022/07/01 09:03:12;;;;;;;;;0.33;0.33;;;;;-146.44;100.00;58906.56;5097660;27;46639;-63
2022/07/01 09:05:37;;;;;;;;;2.00;2.00;;;;;-146.44;100.00;58906.56;5097856;27;45492;-64
2022/07/01 09:08:05;;;;;;;;;1.00;1.00;;;;;-146.44;100.00;58906.56;5097696;27;45508;-62
2022/07/01 09:10:34;;;;;;;;;0.00;0.00;;;;;-146.44;100.00;58906.56;5097765;27;45562;-63
2022/07/01 09:13:08;;;;;;;;;0.00;0.00;;;;;-146.44;100.00;58906.56;5097386;27;46333;-63
2022/07/01 09:15:34;;;;;;;;;3.00;0.67;;;;;-146.44;100.00;58906.56;5097467;27;45594;-63
2022/07/01 09:18:12;;;;;;;;;1.00;1.00;;;;;-146.44;100.00;58906.56;5097510;27;45386;-63
2022/07/01 09:20:43;;;;;;;;;0.00;0.00;;;;;-146.44;100.00;58906.56;5097943;27;45504;-63
2022/07/01 09:23:14;;;;;;;;;1.00;1.00;;;;;-146.44;100.00;58906.56;5097690;27;45603;-63
2022/07/01 09:25:45;;;;;;;;;0.00;0.00;;;;;-146.44;100.00;58906.56;5097562;27;45507;-64
2022/07/01 09:28:16;;;;;;;;;0.00;0.00;;;;;-146.44;100.00;58906.56;5097483;27;45427;-65
2022/07/01 09:30:45;;;;;;;;;0.00;0.00;;;;;-146.44;100.00;58906.56;5097290;27;45588;-63
2022/07/01 09:33:16;;;;;;;;;1.00;1.00;;;;;-146.44;100.00;58906.56;5097259;27;45582;-64
2022/07/01 09:35:43;;;;;;;;;1.67;1.67;;;;;-146.44;100.00;58906.56;5097479;27;45617;-63
2022/07/01 09:38:13;;;;;;;;;1.00;1.00;;;;;-146.44;100.00;58906.56;5097258;27;45563;-62
2022/07/01 09:40:55;;;;;;;;;0.00;0.00;;;;;-146.44;100.00;58906.56;5097230;27;45399;-65
2022/07/01 09:43:28;;;;;;;;;4.00;4.00;;;;;-146.44;100.00;58906.56;5096693;27;46104;-63
2022/07/01 09:46:06;;;;;;;;;4.00;4.00;;;;;-146.44;100.00;58906.56;5097157;27;45520;-64
2022/07/01 09:48:34;;;;;;;;;0.25;0.25;;;;;-146.44;100.00;58906.56;5097376;27;45490;-64
2022/07/01 09:51:07;;;;;;;;;0.50;0.00;;;;;-146.44;100.00;58906.56;5097496;27;45401;-63
2022/07/01 09:53:33;;;;;;;;;0.00;0.00;;;;;-146.44;100.00;58906.56;5078867;27;48038;-63
2022/07/01 09:55:58;;;;;;;;;1.00;1.00;;;;;-146.44;100.00;58906.56;5096401;27;45497;-65
2022/07/01 09:58:25;;;;;;;;;3.00;2.00;;;;;-146.44;100.00;58906.56;5097392;27;45434;-64
2022/07/01 10:00:55;;;;;;;;;1.00;1.00;;;;;-146.44;100.00;58906.56;5096969;27;45693;-63
2022/07/01 10:03:22;;;;;;;;;1.00;1.00;;;;;-146.44;100.00;58906.56;5096919;27;46223;-65
2022/07/01 10:05:53;;;;;;;;;8.67;8.67;;;;;-146.44;100.00;58906.56;5096567;27;45435;-63
2022/07/01 10:08:40;;;;;;;;;1.00;1.00;;;;;-146.44;100.00;58906.56;5096734;27;45461;-63
2022/07/01 10:11:36;;;;;;;;;1.75;0.75;;;;;-146.44;100.00;58906.56;5096418;27;45495;-62
2022/07/01 10:14:09;;;;;;;;;1.50;1.00;;;;;-146.44;100.00;58906.56;5096595;27;45540;-63
2022/07/01 10:16:36;;;;;;;;;1.00;1.00;;;;;-146.44;100.00;58906.56;5096530;27;45569;-63
2022/07/01 10:19:29;;;;;;;;;2.00;2.00;;;;;-146.44;100.00;58906.56;5096506;27;45587;-64
2022/07/01 10:22:00;;;;;;;;;1.00;1.00;;;;;-146.44;100.00;58906.56;5088501;27;45558;-66
2022/07/01 10:24:27;;;;;;;;;0.00;0.00;;;;;-146.44;100.00;58906.56;5095994;27;45460;-65
2022/07/01 10:26:59;;;;;;;;;0.25;0.25;;;;;-146.44;100.00;58906.56;5096538;27;45574;-63
2022/07/01 10:29:33;;;;;;;;;0.00;0.00;;;;;-146.44;100.00;58906.56;5096316;27;45584;-63
2022/07/01 10:32:23;;;;;;;;;0.75;0.75;;;;;-146.44;100.00;58906.56;5096070;27;45480;-64
2022/07/01 10:34:49;;;;;;;;;3.33;3.33;;;;;-146.44;100.00;58906.56;5084585;27;46301;-64
2022/07/01 10:37:17;;;;;;;;;2.00;2.00;;;;;-146.44;100.00;58906.56;5095482;27;45480;-66
2022/07/01 10:39:54;;;;;;;;;3.00;3.00;;;;;-146.44;100.00;58906.56;5095691;27;45477;-64
2022/07/01 10:42:19;;;;;;;;;0.00;0.00;;;;;-146.44;100.00;58906.56;5095247;27;45668;-64
2022/07/01 10:45:05;;;;;;;;;2.75;1.00;;;;;-146.44;100.00;58906.56;5095597;27;45592;-63
2022/07/01 10:47:31;;;;;;;;;3.00;3.00;;;;;-146.44;100.00;58906.56;5094249;27;45509;-64
2022/07/01 10:50:03;;;;;;;;;4.67;4.67;;;;;-146.44;100.00;58906.56;5095630;27;45499;-63
2022/07/01 10:52:28;;;;;;;;;2.75;1.00;;;;;-146.44;100.00;58906.56;5077177;27;45422;-65
2022/07/01 10:54:56;;;;;;;;;0.00;0.00;;;;;-146.44;100.00;58906.56;5095616;27;46474;-65
2022/07/01 10:57:27;;;;;;;;;4.00;3.00;;;;;-146.44;100.00;58906.56;5095212;27;45473;-63
2022/07/01 10:59:53;;;;;;;;;2.25;1.25;;;;;-146.44;100.00;58906.56;5095498;27;45573;-65
2022/07/01 11:02:21;;;;;;;;;4.33;4.33;;;;;-146.44;100.00;58906.56;5094166;27;45456;-63
2022/07/01 11:04:48;;;;;;;;;5.00;4.00;;;;;-146.44;100.00;58906.56;5095388;27;46309;-64
2022/07/01 11:07:14;;;;;;;;;8.67;7.67;;;;;-146.44;100.00;58906.56;5094853;27;45550;-66
2022/07/01 11:09:40;;;;;;;;;7.67;7.67;;;;;-146.44;100.00;58906.56;5094991;27;45507;-65
2022/07/01 11:12:06;;;;;;;;;16.33;16.33;;;;;-146.44;100.00;58906.56;5095294;27;45517;-63
2022/07/01 11:14:40;;;;;;;;;6.33;6.33;;;;;-146.44;100.00;58906.56;5095050;27;47401;-64
2022/07/01 11:17:06;;;;;;;;;4.67;4.00;;;;;-146.44;100.00;58906.56;5095397;27;45518;-64